Time;durP1;ratioP1;P1;durP2;ratioP2;P2;SDS_P1;SDS_P2;PMS_P1;PMS_P2;Temp;Humidity;BMP_temperature;BMP_pressure;BME280_temperature;BME280_humidity;BME280_pressure;Samples;Min_cycle;Max_cycle;Signal;HPM_P1;HPM_P2
2021/11/18 00:01:13;;;;;;;0.47;0.47;;;5.80;99.90;;;;;;5013505;28;20522;-75
2021/11/18 00:03:39;;;;;;;0.35;0.35;;;5.80;99.90;;;;;;5013451;28;20048;-75
2021/11/18 00:06:05;;;;;;;0.77;0.77;;;5.60;99.90;;;;;;5014500;28;20026;-75
2021/11/18 00:08:31;;;;;;;0.30;0.30;;;5.60;99.90;;;;;;5010856;23;20037;-74
2021/11/18 00:11:00;;;;;;;0.20;0.20;;;5.50;99.90;;;;;;5014626;28;20096;-74
2021/11/18 00:13:29;;;;;;;1.05;1.00;;;5.50;99.90;;;;;;5013298;28;20041;-74
2021/11/18 00:15:56;;;;;;;0.30;0.30;;;5.30;99.90;;;;;;5013224;28;20076;-74
2021/11/18 00:18:25;;;;;;;0.30;0.30;;;5.20;99.90;;;;;;4996706;28;20022;-74
2021/11/18 00:20:58;;;;;;;0.20;0.20;;;5.30;99.90;;;;;;5011600;28;20148;-74
2021/11/18 00:23:28;;;;;;;0.47;0.47;;;5.50;99.90;;;;;;5014040;28;20053;-74
2021/11/18 00:25:55;;;;;;;0.17;0.17;;;5.50;99.90;;;;;;5014040;28;20492;-74
2021/11/18 00:28:21;;;;;;;0.20;0.20;;;5.40;99.90;;;;;;5014214;28;20359;-74
2021/11/18 00:30:47;;;;;;;0.30;0.30;;;5.50;99.90;;;;;;5014139;28;20517;-74
2021/11/18 00:33:14;;;;;;;0.20;0.20;;;5.40;99.90;;;;;;5013898;28;20405;-74
2021/11/18 00:35:40;;;;;;;1.05;1.05;;;5.40;99.90;;;;;;5012699;28;20018;-74
2021/11/18 00:38:07;;;;;;;3.90;2.28;;;5.40;99.90;;;;;;5013834;28;20026;-74
2021/11/18 00:40:39;;;;;;;0.32;0.32;;;5.50;99.90;;;;;;5013889;28;20118;-73
2021/11/18 00:43:07;;;;;;;1.10;1.10;;;5.50;99.90;;;;;;5014014;28;20021;-74
2021/11/18 00:45:33;;;;;;;0.20;0.20;;;5.50;99.90;;;;;;5013728;28;20030;-74
2021/11/18 00:48:00;;;;;;;0.20;0.20;;;5.50;99.90;;;;;;5013715;28;20102;-74
2021/11/18 00:50:30;;;;;;;0.50;0.50;;;5.40;99.90;;;;;;5012497;28;20113;-74
2021/11/18 00:52:55;;;;;;;1.05;0.95;;;5.30;99.90;;;;;;5013649;28;20033;-74
2021/11/18 00:55:25;;;;;;;0.40;0.40;;;5.20;99.90;;;;;;5013498;28;20036;-74
2021/11/18 00:57:51;;;;;;;0.90;0.90;;;5.10;99.90;;;;;;4995972;28;20030;-74
2021/11/18 01:00:20;;;;;;;0.30;0.30;;;5.10;99.90;;;;;;5013455;28;20030;-74
2021/11/18 01:02:46;;;;;;;0.22;0.22;;;5.10;99.90;;;;;;5013532;28;20018;-74
2021/11/18 01:05:13;;;;;;;0.22;0.22;;;5.10;99.90;;;;;;5013348;28;20037;-74
2021/11/18 01:07:42;;;;;;;0.30;0.30;;;5.10;99.90;;;;;;5013474;28;20461;-74
2021/11/18 01:10:11;;;;;;;0.50;0.50;;;5.30;99.90;;;;;;5013319;28;20042;-74
2021/11/18 01:12:37;;;;;;;0.93;0.93;;;5.20;99.90;;;;;;5013400;28;20030;-74
2021/11/18 01:15:05;;;;;;;0.30;0.30;;;5.30;99.90;;;;;;5013255;28;20033;-74
2021/11/18 01:17:31;;;;;;;0.20;0.20;;;5.10;99.90;;;;;;5013237;28;20036;-74
2021/11/18 01:19:57;;;;;;;0.70;0.70;;;5.10;99.90;;;;;;5012929;28;20405;-74
2021/11/18 01:22:23;;;;;;;0.35;0.35;;;5.10;99.90;;;;;;5013165;28;20470;-74
2021/11/18 01:24:48;;;;;;;0.28;0.28;;;5.20;99.90;;;;;;5013006;28;20028;-74
2021/11/18 01:27:14;;;;;;;0.57;0.57;;;5.20;99.90;;;;;;5013105;28;20076;-74
2021/11/18 01:29:40;;;;;;;0.40;0.40;;;5.30;99.90;;;;;;5013082;28;20421;-74
2021/11/18 01:32:06;;;;;;;0.30;0.30;;;5.10;99.90;;;;;;5011329;28;20022;-74
2021/11/18 01:34:32;;;;;;;0.20;0.20;;;5.00;99.90;;;;;;5011560;28;20132;-74
2021/11/18 01:36:58;;;;;;;1.30;1.20;;;4.90;99.90;;;;;;5012960;28;20179;-74
2021/11/18 01:39:24;;;;;;;0.20;0.20;;;4.70;99.90;;;;;;5012805;28;20029;-74
2021/11/18 01:41:50;;;;;;;0.30;0.30;;;4.80;99.90;;;;;;5012856;28;20473;-74
2021/11/18 01:44:31;;;;;;;0.30;0.30;;;4.90;99.90;;;;;;5012779;28;20109;-74
2021/11/18 01:46:57;;;;;;;1.40;1.13;;;5.00;99.90;;;;;;5012653;28;20438;-74
2021/11/18 01:49:24;;;;;;;0.45;0.45;;;5.10;99.90;;;;;;5012580;28;20496;-74
2021/11/18 01:51:54;;;;;;;0.30;0.30;;;5.00;99.90;;;;;;5012660;28;20061;-74
2021/11/18 01:54:25;;;;;;;0.30;0.30;;;5.10;99.90;;;;;;5012693;28;20050;-74
2021/11/18 01:56:51;;;;;;;1.65;1.65;;;5.20;99.90;;;;;;5012668;28;20029;-74
2021/11/18 01:59:20;;;;;;;0.30;0.30;;;5.10;99.90;;;;;;5012344;28;20099;-74
2021/11/18 02:01:50;;;;;;;0.20;0.20;;;5.20;99.90;;;;;;5011245;28;20026;-74
2021/11/18 02:04:19;;;;;;;0.20;0.20;;;5.10;99.90;;;;;;5012983;28;20488;-74
2021/11/18 02:07:00;;;;;;;0.88;0.88;;;5.00;99.90;;;;;;5012381;28;20369;-74
2021/11/18 02:09:29;;;;;;;0.57;0.57;;;5.20;99.90;;;;;;5012303;28;20034;-74
2021/11/18 02:12:00;;;;;;;0.20;0.20;;;5.10;99.90;;;;;;5012386;28;20057;-74
2021/11/18 02:14:27;;;;;;;0.13;0.13;;;5.00;99.90;;;;;;5011184;28;20448;-74
2021/11/18 02:16:56;;;;;;;0.30;0.30;;;4.90;99.90;;;;;;5012287;28;20034;-74
2021/11/18 02:19:22;;;;;;;0.20;0.20;;;4.80;99.90;;;;;;5012123;28;20029;-74
2021/11/18 02:21:51;;;;;;;0.57;0.57;;;4.80;99.90;;;;;;5010999;28;20445;-74
2021/11/18 02:24:25;;;;;;;0.73;0.73;;;4.80;99.90;;;;;;5010849;28;20084;-74
2021/11/18 02:26:51;;;;;;;0.30;0.30;;;5.00;99.90;;;;;;5012491;28;20029;-73
2021/11/18 02:29:19;;;;;;;0.98;0.98;;;5.20;99.90;;;;;;5012152;28;20080;-74
2021/11/18 02:31:56;;;;;;;0.20;0.20;;;5.30;99.90;;;;;;5012232;28;20466;-74
2021/11/18 02:34:36;;;;;;;0.20;0.20;;;5.50;99.90;;;;;;5012083;28;20033;-74
2021/11/18 02:37:02;;;;;;;0.32;0.32;;;5.60;99.90;;;;;;5012132;28;20052;-74
2021/11/18 02:39:28;;;;;;;0.25;0.25;;;5.50;99.90;;;;;;5012122;28;20022;-74
2021/11/18 02:41:53;;;;;;;0.52;0.52;;;5.60;99.90;;;;;;5012107;28;20309;-74
2021/11/18 02:44:19;;;;;;;0.20;0.20;;;5.70;99.90;;;;;;5014618;28;20021;-74
2021/11/18 02:46:45;;;;;;;0.20;0.20;;;5.70;99.90;;;;;;5014779;28;20026;-74
2021/11/18 02:49:11;;;;;;;0.20;0.20;;;5.70;99.90;;;;;;5015996;28;20030;-74
2021/11/18 02:51:37;;;;;;;0.45;0.45;;;5.80;99.90;;;;;;5015903;28;20411;-75
2021/11/18 02:54:04;;;;;;;0.47;0.47;;;5.80;99.90;;;;;;5016017;28;20536;-74
2021/11/18 02:56:32;;;;;;;0.20;0.20;;;5.80;99.90;;;;;;5014472;28;20037;-74
2021/11/18 02:58:59;;;;;;;0.20;0.20;;;5.50;99.90;;;;;;5015773;28;20068;-74
2021/11/18 03:01:32;;;;;;;0.20;0.20;;;5.40;99.90;;;;;;5015775;28;20014;-74
2021/11/18 03:03:59;;;;;;;3.30;2.08;;;5.30;99.90;;;;;;5015746;28;20084;-74
2021/11/18 03:06:26;;;;;;;0.20;0.20;;;5.30;99.90;;;;;;5015562;28;20033;-74
2021/11/18 03:08:51;;;;;;;0.63;0.63;;;5.40;99.90;;;;;;5015640;28;20041;-74
2021/11/18 03:11:19;;;;;;;0.20;0.20;;;5.20;99.90;;;;;;5015590;28;20037;-74
2021/11/18 03:13:46;;;;;;;1.05;1.05;;;5.30;99.90;;;;;;5015537;28;20075;-74
2021/11/18 03:16:12;;;;;;;0.20;0.20;;;5.30;99.90;;;;;;5015430;28;20104;-74
2021/11/18 03:18:38;;;;;;;0.30;0.30;;;5.30;99.90;;;;;;5015518;28;20105;-74
2021/11/18 03:21:08;;;;;;;0.20;0.20;;;5.40;99.90;;;;;;5015408;28;20037;-74
2021/11/18 03:23:33;;;;;;;2.75;1.58;;;5.60;99.90;;;;;;5015424;28;20033;-74
2021/11/18 03:25:59;;;;;;;0.20;0.20;;;5.60;99.90;;;;;;5013981;28;20026;-74
2021/11/18 03:28:27;;;;;;;0.60;0.60;;;5.70;99.90;;;;;;5014055;28;20103;-74
2021/11/18 03:30:54;;;;;;;0.20;0.20;;;5.60;99.90;;;;;;5015211;28;20556;-74
2021/11/18 03:33:28;;;;;;;5.55;3.75;;;5.60;99.90;;;;;;5015172;28;20030;-74
2021/11/18 03:35:55;;;;;;;0.20;0.20;;;5.60;99.90;;;;;;5015066;28;20084;-74
2021/11/18 03:38:23;;;;;;;0.20;0.20;;;5.50;99.90;;;;;;5013750;28;20034;-73
2021/11/18 03:40:50;;;;;;;0.50;0.50;;;5.40;99.90;;;;;;5015015;28;20026;-74
2021/11/18 03:43:22;;;;;;;0.70;0.40;;;5.30;99.90;;;;;;5014990;28;20030;-73
2021/11/18 03:45:49;;;;;;;0.35;0.28;;;5.30;99.90;;;;;;5015333;28;20018;-74
2021/11/18 03:48:19;;;;;;;0.20;0.20;;;5.20;99.90;;;;;;5014992;28;20030;-74
2021/11/18 03:50:47;;;;;;;1.05;1.05;;;5.20;99.90;;;;;;5013568;28;20094;-74
2021/11/18 03:53:14;;;;;;;0.20;0.20;;;5.20;99.90;;;;;;5013763;28;20053;-74
2021/11/18 03:55:40;;;;;;;0.43;0.43;;;5.20;99.90;;;;;;5013070;28;20024;-74
2021/11/18 03:58:06;;;;;;;0.30;0.30;;;5.30;99.90;;;;;;5014629;28;20030;-74
2021/11/18 04:00:34;;;;;;;0.30;0.30;;;5.50;99.90;;;;;;5014604;28;20030;-74
2021/11/18 04:03:01;;;;;;;0.20;0.20;;;5.60;99.90;;;;;;5013602;28;20084;-74
2021/11/18 04:05:27;;;;;;;0.20;0.20;;;5.60;99.90;;;;;;5013208;28;20018;-74
2021/11/18 04:07:53;;;;;;;0.20;0.20;;;5.70;99.90;;;;;;5014647;28;20033;-74
2021/11/18 04:10:24;;;;;;;0.20;0.20;;;5.60;99.90;;;;;;5013108;28;20041;-75
2021/11/18 04:12:50;;;;;;;0.57;0.57;;;5.60;99.90;;;;;;5014394;28;20057;-74
2021/11/18 04:15:18;;;;;;;0.43;0.43;;;5.60;99.90;;;;;;5014342;28;20029;-74
2021/11/18 04:17:43;;;;;;;0.52;0.52;;;5.70;99.90;;;;;;5014400;28;20022;-74
2021/11/18 04:20:11;;;;;;;0.30;0.30;;;5.70;99.90;;;;;;5014314;28;20030;-74
2021/11/18 04:22:37;;;;;;;0.30;0.30;;;5.70;99.90;;;;;;5012948;28;20440;-74
2021/11/18 04:25:07;;;;;;;0.20;0.20;;;5.70;99.90;;;;;;5014352;28;20021;-74
2021/11/18 04:27:34;;;;;;;0.20;0.20;;;5.70;99.90;;;;;;5012864;28;20083;-74
2021/11/18 04:30:00;;;;;;;0.30;0.30;;;5.50;99.90;;;;;;5014107;28;20071;-75
2021/11/18 04:32:28;;;;;;;0.47;0.47;;;5.40;99.90;;;;;;5013973;28;20036;-74
2021/11/18 04:34:54;;;;;;;0.60;0.60;;;5.40;99.90;;;;;;5013901;28;20029;-74
2021/11/18 04:37:21;;;;;;;0.32;0.32;;;5.30;99.90;;;;;;5014163;28;20393;-74
2021/11/18 04:39:48;;;;;;;0.40;0.40;;;5.30;99.90;;;;;;5013824;28;20022;-74
2021/11/18 04:42:15;;;;;;;0.20;0.20;;;5.30;99.90;;;;;;5012704;28;20477;-74
2021/11/18 04:44:41;;;;;;;0.60;0.60;;;5.30;99.90;;;;;;5012506;28;20030;-74
2021/11/18 04:47:10;;;;;;;0.43;0.43;;;5.30;99.90;;;;;;5013900;28;20473;-74
2021/11/18 04:49:37;;;;;;;1.77;1.52;;;5.30;99.90;;;;;;5013728;28;20072;-74
2021/11/18 04:52:03;;;;;;;0.32;0.32;;;5.10;99.90;;;;;;5013793;28;20026;-74
2021/11/18 04:54:30;;;;;;;0.30;0.30;;;5.10;99.90;;;;;;5013565;28;20034;-74
2021/11/18 04:56:55;;;;;;;0.20;0.20;;;5.10;99.90;;;;;;5013540;28;20195;-73
2021/11/18 04:59:21;;;;;;;0.20;0.20;;;5.10;99.90;;;;;;5013488;28;20433;-74
2021/11/18 05:01:47;;;;;;;0.28;0.28;;;5.30;99.90;;;;;;5013588;28;20473;-74
2021/11/18 05:04:13;;;;;;;4.70;3.90;;;5.50;99.90;;;;;;5012354;28;20030;-74
2021/11/18 05:06:38;;;;;;;0.22;0.22;;;5.50;99.90;;;;;;5012711;28;20030;-74
2021/11/18 05:09:07;;;;;;;0.20;0.20;;;5.50;99.90;;;;;;5013141;28;20034;-74
2021/11/18 05:11:33;;;;;;;0.45;0.45;;;5.50;99.90;;;;;;5013914;28;20026;-74
2021/11/18 05:13:59;;;;;;;0.20;0.20;;;5.60;99.90;;;;;;5013410;28;20029;-74
2021/11/18 05:16:24;;;;;;;0.50;0.50;;;5.50;99.90;;;;;;5013142;28;20496;-74
2021/11/18 05:18:50;;;;;;;0.30;0.30;;;5.60;99.90;;;;;;5013180;28;20033;-74
2021/11/18 05:21:20;;;;;;;0.43;0.43;;;5.70;99.90;;;;;;5013176;28;20381;-74
2021/11/18 05:23:47;;;;;;;0.40;0.40;;;5.70;99.90;;;;;;5011996;28;20485;-74
2021/11/18 05:26:15;;;;;;;0.20;0.20;;;5.60;99.90;;;;;;5012852;28;20386;-74
2021/11/18 05:28:42;;;;;;;0.93;0.93;;;5.60;99.90;;;;;;5013102;28;20029;-74
2021/11/18 05:31:09;;;;;;;0.65;0.63;;;5.70;99.90;;;;;;5011814;28;20433;-74
2021/11/18 05:33:35;;;;;;;0.55;0.55;;;5.50;99.90;;;;;;5012833;28;20030;-74
2021/11/18 05:36:01;;;;;;;0.20;0.20;;;5.50;99.90;;;;;;5012805;28;20561;-73
2021/11/18 05:38:27;;;;;;;0.40;0.40;;;5.60;99.90;;;;;;5012872;28;20137;-73
2021/11/18 05:40:54;;;;;;;2.17;1.98;;;5.70;99.90;;;;;;5011405;28;20029;-74
2021/11/18 05:43:20;;;;;;;0.20;0.20;;;5.70;99.90;;;;;;5012895;28;20420;-74
2021/11/18 05:45:46;;;;;;;0.43;0.43;;;5.70;99.90;;;;;;5012654;28;20030;-74
2021/11/18 05:48:15;;;;;;;0.30;0.30;;;5.80;99.90;;;;;;5011446;28;20477;-73
2021/11/18 05:50:46;;;;;;;9.10;1.27;;;5.70;99.90;;;;;;5011172;28;20433;-73
2021/11/18 05:53:13;;;;;;;0.20;0.20;;;5.50;99.90;;;;;;5011461;28;20117;-73
2021/11/18 05:55:39;;;;;;;2.00;1.90;;;5.50;99.90;;;;;;5012518;28;20030;-74
2021/11/18 05:58:05;;;;;;;0.28;0.28;;;5.60;99.90;;;;;;5012669;28;20030;-73
2021/11/18 06:00:33;;;;;;;0.50;0.50;;;5.70;99.90;;;;;;5011051;28;20025;-74
2021/11/18 06:02:59;;;;;;;0.20;0.20;;;5.60;99.90;;;;;;5011083;28;20044;-74
2021/11/18 06:05:27;;;;;;;0.47;0.47;;;5.50;99.90;;;;;;5012289;28;20014;-74
2021/11/18 06:07:53;;;;;;;2.92;1.85;;;5.50;99.90;;;;;;5012577;28;20492;-74
2021/11/18 06:10:21;;;;;;;1.40;0.77;;;5.40;99.90;;;;;;5018201;23;20041;-75
2021/11/18 06:12:48;;;;;;;0.60;0.60;;;5.40;99.90;;;;;;5012685;28;20018;-72
2021/11/18 06:15:14;;;;;;;0.20;0.20;;;5.30;99.90;;;;;;5012156;28;20036;-72
2021/11/18 06:17:40;;;;;;;0.30;0.30;;;5.40;99.90;;;;;;5012375;28;20433;-72
2021/11/18 06:20:08;;;;;;;0.30;0.30;;;5.40;99.90;;;;;;5012314;28;20061;-72
2021/11/18 06:22:34;;;;;;;1.23;1.23;;;5.40;99.90;;;;;;5010807;28;20370;-72
2021/11/18 06:25:00;;;;;;;0.20;0.20;;;5.40;99.90;;;;;;5012016;28;20025;-72
2021/11/18 06:27:27;;;;;;;0.20;0.20;;;5.30;99.90;;;;;;5010935;28;20482;-72
2021/11/18 06:29:53;;;;;;;0.40;0.40;;;5.30;99.90;;;;;;5012043;28;20026;-72
2021/11/18 06:32:19;;;;;;;0.30;0.30;;;5.40;99.90;;;;;;5010453;28;20029;-72
2021/11/18 06:34:45;;;;;;;0.20;0.20;;;5.20;99.90;;;;;;5012003;28;20038;-72
2021/11/18 06:37:12;;;;;;;0.30;0.30;;;5.30;99.90;;;;;;5010833;28;20079;-72
2021/11/18 06:39:39;;;;;;;0.65;0.65;;;5.30;99.90;;;;;;5010550;28;20596;-72
2021/11/18 06:42:07;;;;;;;1.85;1.75;;;5.30;99.90;;;;;;5011927;28;20560;-72
2021/11/18 06:44:33;;;;;;;0.60;0.60;;;5.40;99.90;;;;;;5011777;28;20029;-72
2021/11/18 06:46:59;;;;;;;0.20;0.20;;;5.40;99.90;;;;;;5010801;28;20037;-72
2021/11/18 06:49:25;;;;;;;0.30;0.30;;;5.40;99.90;;;;;;5011819;28;20393;-72
2021/11/18 06:51:50;;;;;;;0.98;0.65;;;5.40;99.90;;;;;;5011898;28;20033;-72
2021/11/18 06:54:18;;;;;;;0.20;0.20;;;5.40;99.90;;;;;;5011711;28;20036;-71
2021/11/18 06:56:44;;;;;;;1.10;1.05;;;5.60;99.90;;;;;;5010477;28;20033;-72
2021/11/18 06:59:10;;;;;;;0.20;0.20;;;6.00;99.90;;;;;;5011667;28;20045;-73
2021/11/18 07:01:37;;;;;;;0.17;0.17;;;6.30;99.90;;;;;;5011708;28;20022;-72
2021/11/18 07:04:07;;;;;;;0.20;0.20;;;6.40;99.90;;;;;;5010465;28;20034;-73
2021/11/18 07:06:34;;;;;;;3.38;1.50;;;6.40;99.90;;;;;;5010712;28;20018;-72
2021/11/18 07:09:01;;;;;;;0.20;0.20;;;6.30;99.90;;;;;;5011130;28;20474;-72
2021/11/18 07:11:27;;;;;;;16.20;2.97;;;6.20;99.90;;;;;;5010284;28;20076;-72
2021/11/18 07:13:53;;;;;;;0.80;0.80;;;6.20;99.90;;;;;;5016579;28;20030;-71
2021/11/18 07:16:21;;;;;;;2.38;0.85;;;6.10;99.90;;;;;;5031004;28;20033;-71
2021/11/18 07:18:47;;;;;;;0.20;0.20;;;6.00;99.90;;;;;;5020588;28;20083;-73
2021/11/18 07:21:14;;;;;;;0.40;0.40;;;5.80;99.90;;;;;;5011412;28;20375;-73
2021/11/18 07:23:41;;;;;;;2.25;2.05;;;5.60;99.90;;;;;;5010182;28;20022;-73
2021/11/18 07:26:07;;;;;;;3.50;2.65;;;5.50;99.90;;;;;;5010797;28;20065;-73
2021/11/18 07:28:35;;;;;;;0.95;0.95;;;5.40;99.90;;;;;;5031198;28;20029;-73
2021/11/18 07:31:03;;;;;;;1.55;1.45;;;5.40;99.90;;;;;;5034647;28;20100;-73
2021/11/18 07:33:30;;;;;;;2.10;1.35;;;5.40;99.90;;;;;;5033944;28;20025;-73
2021/11/18 07:35:56;;;;;;;0.80;0.80;;;5.40;99.90;;;;;;5034696;28;20457;-73
2021/11/18 07:38:24;;;;;;;1.05;1.05;;;5.40;99.90;;;;;;5034606;28;20663;-73
2021/11/18 07:40:50;;;;;;;3.58;1.85;;;5.40;99.90;;;;;;5033525;28;20022;-73
2021/11/18 07:43:19;;;;;;;0.20;0.20;;;5.50;99.90;;;;;;5015474;28;20021;-73
2021/11/18 07:45:50;;;;;;;4.13;2.13;;;5.40;99.90;;;;;;5014604;28;20374;-73
2021/11/18 07:48:16;;;;;;;1.33;1.10;;;5.50;99.90;;;;;;5013582;28;20033;-73
2021/11/18 07:50:43;;;;;;;2.20;1.17;;;5.40;99.90;;;;;;5014765;28;20490;-73
2021/11/18 07:53:10;;;;;;;2.63;1.85;;;5.40;99.90;;;;;;5013588;28;20033;-73
2021/11/18 07:55:35;;;;;;;0.98;0.98;;;5.40;99.90;;;;;;4996994;28;20397;-74
2021/11/18 07:58:01;;;;;;;0.30;0.30;;;5.50;99.90;;;;;;5029844;28;20026;-73
2021/11/18 08:00:27;;;;;;;0.30;0.30;;;5.70;99.90;;;;;;5011711;28;20537;-75
2021/11/18 08:02:53;;;;;;;5.28;1.67;;;5.60;99.90;;;;;;5012488;28;20018;-75
2021/11/18 08:05:19;;;;;;;0.40;0.40;;;5.70;99.90;;;;;;5014372;28;20385;-75
2021/11/18 08:07:46;;;;;;;1.02;1.02;;;5.70;99.90;;;;;;4996782;28;20076;-75
2021/11/18 08:10:13;;;;;;;2.08;0.85;;;5.70;99.90;;;;;;5012214;28;20056;-74
2021/11/18 08:12:40;;;;;;;1.60;1.60;;;5.80;99.90;;;;;;5012561;28;20037;-75
2021/11/18 08:15:10;;;;;;;1.70;1.58;;;5.80;99.90;;;;;;5012437;28;20034;-75
2021/11/18 08:17:37;;;;;;;4.38;1.23;;;5.70;99.90;;;;;;5014039;28;20022;-75
2021/11/18 08:20:04;;;;;;;1.38;1.27;;;5.70;99.90;;;;;;5013791;28;20580;-74
2021/11/18 08:22:30;;;;;;;0.20;0.20;;;5.60;99.90;;;;;;5029363;28;20022;-75
2021/11/18 08:24:56;;;;;;;0.25;0.25;;;5.80;99.90;;;;;;5013706;28;20396;-75
2021/11/18 08:27:22;;;;;;;0.40;0.40;;;6.10;99.90;;;;;;5028868;28;20018;-75
2021/11/18 08:29:49;;;;;;;0.50;0.50;;;6.30;99.90;;;;;;5028800;28;20393;-75
2021/11/18 08:32:15;;;;;;;0.20;0.20;;;6.10;99.90;;;;;;5013554;28;20022;-76
2021/11/18 08:34:42;;;;;;;0.30;0.30;;;6.10;99.90;;;;;;5012243;28;20030;-75
2021/11/18 08:37:08;;;;;;;0.20;0.20;;;6.20;99.90;;;;;;5013465;28;20059;-75
2021/11/18 08:39:36;;;;;;;1.75;0.50;;;6.20;99.90;;;;;;5013661;28;20482;-75
2021/11/18 08:42:07;;;;;;;2.33;1.08;;;6.30;99.90;;;;;;5012132;28;20018;-75
2021/11/18 08:44:34;;;;;;;1.77;1.50;;;6.30;99.90;;;;;;5012196;28;20068;-75
2021/11/18 08:47:02;;;;;;;0.20;0.20;;;6.20;99.90;;;;;;5028919;28;20030;-75
2021/11/18 08:49:28;;;;;;;0.10;0.10;;;6.30;99.90;;;;;;5012217;28;20049;-75
2021/11/18 08:51:56;;;;;;;0.25;0.25;;;6.60;99.90;;;;;;5011956;28;20026;-75
2021/11/18 08:54:25;;;;;;;1.05;1.05;;;6.70;99.90;;;;;;5012103;28;20040;-75
2021/11/18 08:56:53;;;;;;;1.60;1.50;;;6.90;99.90;;;;;;5012195;28;20033;-75
2021/11/18 08:59:21;;;;;;;1.42;1.00;;;7.00;99.90;;;;;;5028396;28;20022;-75
2021/11/18 09:01:54;;;;;;;0.20;0.20;;;6.80;99.90;;;;;;5011961;28;20481;-75
2021/11/18 09:04:22;;;;;;;0.17;0.17;;;6.90;99.90;;;;;;5011981;28;20559;-75
2021/11/18 09:06:50;;;;;;;0.20;0.20;;;6.90;99.90;;;;;;5011666;28;20021;-75
2021/11/18 09:09:18;;;;;;;0.30;0.30;;;6.90;99.90;;;;;;5013198;28;20030;-75
2021/11/18 09:11:45;;;;;;;4.10;2.10;;;7.00;99.90;;;;;;5011796;28;20026;-77
2021/11/18 09:14:13;;;;;;;0.95;0.95;;;6.90;99.90;;;;;;5012219;28;20389;-76
2021/11/18 09:16:42;;;;;;;0.55;0.55;;;7.10;99.90;;;;;;5011645;28;20030;-75
2021/11/18 09:19:11;;;;;;;0.70;0.70;;;7.10;99.90;;;;;;5012982;28;20030;-75
2021/11/18 09:21:39;;;;;;;0.20;0.20;;;7.20;99.90;;;;;;5012863;28;20053;-76
2021/11/18 09:24:10;;;;;;;0.20;0.20;;;7.20;99.90;;;;;;5012972;28;20393;-76
2021/11/18 09:26:40;;;;;;;0.20;0.20;;;7.30;99.90;;;;;;4995624;28;20026;-76
2021/11/18 09:29:06;;;;;;;0.75;0.75;;;7.20;99.90;;;;;;5012875;28;20030;-76
2021/11/18 09:31:33;;;;;;;0.20;0.20;;;7.30;99.90;;;;;;5011828;28;20029;-75
2021/11/18 09:34:00;;;;;;;0.52;0.47;;;7.30;99.90;;;;;;5011417;28;20080;-76
2021/11/18 09:36:27;;;;;;;2.15;1.65;;;7.40;99.90;;;;;;5012323;28;20073;-76
2021/11/18 09:38:55;;;;;;;0.20;0.20;;;7.40;99.90;;;;;;5027350;28;20037;-75
2021/11/18 09:41:27;;;;;;;0.60;0.60;;;7.30;99.90;;;;;;5011378;28;20026;-76
2021/11/18 09:44:08;;;;;;;;;;;7.30;99.90;;;;;;5012975;28;20022;-75
2021/11/18 09:47:05;;;;;;;0.90;0.90;;;7.40;99.90;;;;;;4995382;28;19948;-74
2021/11/18 09:49:37;;;;;;;0.20;0.20;;;7.50;99.90;;;;;;5028595;28;20030;-77
2021/11/18 09:52:41;;;;;;;0.25;0.25;;;7.70;99.90;;;;;;5012263;28;20033;-76
2021/11/18 09:55:09;;;;;;;0.20;0.20;;;7.90;99.90;;;;;;4995371;28;20443;-77
2021/11/18 09:58:00;;;;;;;0.25;0.25;;;8.00;99.90;;;;;;5013253;28;20057;-76
2021/11/18 10:00:42;;;;;;;2.08;1.75;;;8.20;99.90;;;;;;5013061;28;20054;-77
2021/11/18 10:03:21;;;;;;;;;;;8.10;99.90;;;;;;4995926;28;20060;-76
2021/11/18 10:06:18;;;;;;;0.20;0.20;;;8.10;99.90;;;;;;5010842;28;19969;-77
2021/11/18 10:09:02;;;;;;;0.20;0.20;;;8.40;99.90;;;;;;4987507;28;20030;-76
2021/11/18 10:11:34;;;;;;;0.43;0.43;;;8.60;99.90;;;;;;5002137;28;20026;-76
2021/11/18 10:14:13;;;;;;;0.15;0.15;;;8.70;99.90;;;;;;5009739;28;20025;-76
2021/11/18 10:16:53;;;;;;;0.85;0.85;;;9.00;99.90;;;;;;5008699;28;20029;-76
2021/11/18 10:19:31;;;;;;;0.20;0.20;;;9.10;99.90;;;;;;5009946;28;20113;-78
2021/11/18 10:21:59;;;;;;;0.20;0.20;;;9.10;99.90;;;;;;5008741;28;20018;-76
2021/11/18 10:24:28;;;;;;;0.30;0.30;;;9.10;99.90;;;;;;5009755;28;20040;-75
2021/11/18 10:27:08;;;;;;;1.52;1.42;;;9.10;99.90;;;;;;5008780;28;20115;-76
2021/11/18 10:29:34;;;;;;;4.28;4.00;;;9.10;99.90;;;;;;5009403;28;20060;-76
2021/11/18 10:32:06;;;;;;;0.20;0.20;;;9.20;99.90;;;;;;5010035;28;20036;-76
2021/11/18 10:34:52;;;;;;;0.30;0.30;;;9.20;99.90;;;;;;5009861;28;20088;-75
2021/11/18 10:37:33;;;;;;;1.00;0.95;;;8.90;99.90;;;;;;5011653;28;20473;-74
2021/11/18 10:40:08;;;;;;;0.75;0.75;;;9.00;99.90;;;;;;5011623;28;20037;-74
2021/11/18 10:42:39;;;;;;;1.95;1.85;;;9.00;99.90;;;;;;5011683;28;20022;-75
2021/11/18 10:45:10;;;;;;;0.75;0.75;;;9.40;99.90;;;;;;5005583;28;20101;-76
2021/11/18 10:47:59;;;;;;;4.85;1.00;;;9.70;99.90;;;;;;5009191;28;20026;-76
2021/11/18 10:50:55;;;;;;;0.20;0.20;;;9.90;99.90;;;;;;5008722;28;20136;-75
2021/11/18 10:53:29;;;;;;;0.20;0.20;;;10.10;99.90;;;;;;4993572;28;20120;-75
2021/11/18 10:56:19;;;;;;;0.85;0.85;;;10.30;99.90;;;;;;5009957;28;20054;-75
2021/11/18 10:58:59;;;;;;;0.20;0.20;;;10.30;99.90;;;;;;5010226;28;20088;-75
2021/11/18 11:01:25;;;;;;;0.77;0.40;;;10.30;99.90;;;;;;5009941;28;20029;-74
2021/11/18 11:03:52;;;;;;;0.20;0.20;;;10.50;99.90;;;;;;5011831;28;20489;-74
2021/11/18 11:06:27;;;;;;;0.60;0.60;;;10.80;99.90;;;;;;5016281;28;20445;-74
2021/11/18 11:09:08;;;;;;;0.20;0.20;;;11.20;99.80;;;;;;5015050;28;20052;-74
2021/11/18 11:11:52;;;;;;;0.50;0.50;;;11.50;97.70;;;;;;5014118;28;20105;-74
2021/11/18 11:14:55;;;;;;;1.77;1.67;;;11.90;96.20;;;;;;5015206;28;20028;-74
2021/11/18 11:17:58;;;;;;;0.60;0.60;;;12.10;95.30;;;;;;5015231;28;20026;-74
2021/11/18 11:20:44;;;;;;;1.15;1.08;;;12.20;94.80;;;;;;5015144;28;20033;-74
2021/11/18 11:23:24;;;;;;;0.20;0.20;;;12.20;93.80;;;;;;5013644;28;20033;-74
2021/11/18 11:26:27;;;;;;;0.98;0.98;;;12.40;93.00;;;;;;5014876;28;20426;-74
2021/11/18 11:29:23;;;;;;;4.47;1.10;;;12.10;92.10;;;;;;5013730;28;20051;-74
2021/11/18 11:31:53;;;;;;;0.88;0.35;;;11.90;92.60;;;;;;5013530;28;20052;-74
2021/11/18 11:34:57;;;;;;;0.30;0.30;;;12.20;92.30;;;;;;5014779;28;20084;-74
2021/11/18 11:37:36;;;;;;;0.10;0.10;;;12.20;90.90;;;;;;5013946;28;20026;-74
2021/11/18 11:40:10;;;;;;;0.30;0.30;;;12.20;90.80;;;;;;5013329;28;20485;-74
2021/11/18 11:42:57;;;;;;;0.20;0.20;;;12.60;87.80;;;;;;5014640;28;20026;-74
2021/11/18 11:45:45;;;;;;;0.20;0.20;;;13.00;86.80;;;;;;5014466;28;20030;-74
2021/11/18 11:48:29;;;;;;;0.20;0.20;;;12.70;84.90;;;;;;5013336;28;20076;-74
2021/11/18 11:51:10;;;;;;;0.10;0.10;;;12.30;87.00;;;;;;5014569;28;20030;-74
2021/11/18 11:53:47;;;;;;;0.75;0.63;;;12.60;87.80;;;;;;5013260;28;20450;-74
2021/11/18 11:56:36;;;;;;;0.77;0.77;;;12.20;84.90;;;;;;5014464;28;20088;-74
2021/11/18 11:59:11;;;;;;;0.47;0.47;;;12.10;86.90;;;;;;5013041;28;20026;-74
2021/11/18 12:02:08;;;;;;;0.20;0.20;;;12.00;88.70;;;;;;5014429;28;20049;-74
2021/11/18 12:04:45;;;;;;;0.20;0.20;;;12.10;89.50;;;;;;5013165;28;20045;-74
2021/11/18 12:07:33;;;;;;;0.10;0.10;;;12.40;88.80;;;;;;5014405;28;20049;-74
2021/11/18 12:10:02;;;;;;;4.03;1.45;;;12.60;89.90;;;;;;5022262;23;20050;-87
2021/11/18 12:12:42;;;;;;;0.73;0.55;;;12.90;85.90;;;;;;4966079;28;20026;-87
2021/11/18 12:15:13;;;;;;;1.85;0.77;;;13.20;85.10;;;;;;4965219;28;20045;-89
2021/11/18 12:17:52;;;;;;;0.10;0.10;;;12.60;82.60;;;;;;4955455;28;20024;-89
2021/11/18 12:20:25;;;;;;;0.50;0.50;;;12.30;86.30;;;;;;4955537;28;20042;-89
2021/11/18 12:23:00;;;;;;;0.20;0.20;;;12.10;84.90;;;;;;4955980;28;20094;-89
2021/11/18 12:25:40;;;;;;;1.50;1.42;;;11.80;87.40;;;;;;4958157;28;20113;-89
2021/11/18 12:28:12;;;;;;;0.20;0.20;;;11.50;87.20;;;;;;4973361;28;20059;-89
2021/11/18 12:30:47;;;;;;;0.25;0.25;;;11.50;88.70;;;;;;4956871;28;20042;-89
2021/11/18 12:33:23;;;;;;;1.10;1.10;;;11.70;87.40;;;;;;4974180;28;20042;-89
2021/11/18 12:36:28;;;;;;;0.20;0.20;;;11.70;89.30;;;;;;4972539;28;20131;-89
2021/11/18 12:38:54;;;;;;;0.20;0.20;;;11.30;90.00;;;;;;4955799;29;20555;-89
2021/11/18 12:41:39;;;;;;;0.47;0.47;;;11.30;91.10;;;;;;4956625;28;20106;-89
2021/11/18 12:44:49;;;;;;;0.20;0.20;;;11.30;90.00;;;;;;4986922;28;20026;-89
2021/11/18 12:47:18;;;;;;;0.40;0.40;;;11.70;90.60;;;;;;4941536;28;20432;-89
2021/11/18 12:49:44;;;;;;;0.22;0.22;;;12.00;90.10;;;;;;4937421;29;20061;-89
2021/11/18 12:52:34;;;;;;;0.30;0.30;;;12.20;90.40;;;;;;4990813;28;20034;-89
2021/11/18 12:55:12;;;;;;;0.47;0.47;;;12.80;89.30;;;;;;4973388;28;20397;-89
2021/11/18 12:58:15;;;;;;;0.10;0.10;;;13.20;84.80;;;;;;4940035;29;20034;-89
2021/11/18 13:00:51;;;;;;;1.65;0.50;;;13.30;85.10;;;;;;4955272;28;20035;-89
2021/11/18 13:03:45;;;;;;;0.55;0.47;;;12.90;85.70;;;;;;4957359;28;20027;-90
2021/11/18 13:06:32;;;;;;;0.50;0.50;;;13.10;85.40;;;;;;4938758;29;20082;-89
2021/11/18 13:09:02;;;;;;;0.20;0.20;;;13.40;84.80;;;;;;4954970;28;20192;-89
2021/11/18 13:11:28;;;;;;;1.35;0.95;;;13.40;82.50;;;;;;4970821;23;20042;-75
2021/11/18 13:14:09;;;;;;;0.30;0.30;;;13.50;83.60;;;;;;5013511;28;20036;-76